sensor_id;sensor_type;location;lat;lon;timestamp;P1;durP1;ratioP1;P2;durP2;ratioP2
1777;SDS011;886;50.082;8.222;2023-04-25T00:01:28;4.27;;;3.87;;
1777;SDS011;886;50.082;8.222;2023-04-25T00:03:56;4.53;;;3.17;;
1777;SDS011;886;50.082;8.222;2023-04-25T00:06:27;4.20;;;3.90;;
1777;SDS011;886;50.082;8.222;2023-04-25T00:08:59;3.90;;;3.60;;
1777;SDS011;886;50.082;8.222;2023-04-25T00:11:26;4.20;;;3.90;;
1777;SDS011;886;50.082;8.222;2023-04-25T00:13:55;4.17;;;3.60;;
1777;SDS011;886;50.082;8.222;2023-04-25T00:16:22;4.33;;;4.00;;
1777;SDS011;886;50.082;8.222;2023-04-25T00:18:50;3.60;;;3.30;;
1777;SDS011;886;50.082;8.222;2023-04-25T00:21:20;3.33;;;3.03;;
1777;SDS011;886;50.082;8.222;2023-04-25T00:23:52;4.33;;;3.27;;
1777;SDS011;886;50.082;8.222;2023-04-25T00:26:20;3.93;;;3.63;;
1777;SDS011;886;50.082;8.222;2023-04-25T00:28:47;4.00;;;3.60;;
1777;SDS011;886;50.082;8.222;2023-04-25T00:31:19;3.03;;;2.83;;
1777;SDS011;886;50.082;8.222;2023-04-25T00:33:47;3.83;;;3.43;;
1777;SDS011;886;50.082;8.222;2023-04-25T00:36:14;4.00;;;3.30;;
1777;SDS011;886;50.082;8.222;2023-04-25T00:38:43;3.80;;;3.50;;
1777;SDS011;886;50.082;8.222;2023-04-25T00:41:17;4.20;;;3.90;;
1777;SDS011;886;50.082;8.222;2023-04-25T00:43:45;3.50;;;3.30;;
1777;SDS011;886;50.082;8.222;2023-04-25T00:46:19;4.43;;;4.03;;
1777;SDS011;886;50.082;8.222;2023-04-25T00:48:49;4.20;;;3.90;;
1777;SDS011;886;50.082;8.222;2023-04-25T00:51:20;4.10;;;3.80;;
1777;SDS011;886;50.082;8.222;2023-04-25T00:53:48;5.27;;;4.20;;
1777;SDS011;886;50.082;8.222;2023-04-25T00:56:17;3.40;;;3.20;;
1777;SDS011;886;50.082;8.222;2023-04-25T00:58:44;3.63;;;3.33;;
1777;SDS011;886;50.082;8.222;2023-04-25T01:01:12;3.70;;;3.40;;
1777;SDS011;886;50.082;8.222;2023-04-25T01:03:40;3.93;;;3.60;;
1777;SDS011;886;50.082;8.222;2023-04-25T01:06:12;4.03;;;3.73;;
1777;SDS011;886;50.082;8.222;2023-04-25T01:08:45;4.00;;;3.70;;
1777;SDS011;886;50.082;8.222;2023-04-25T01:11:15;4.90;;;3.80;;
1777;SDS011;886;50.082;8.222;2023-04-25T01:13:42;4.50;;;4.10;;
1777;SDS011;886;50.082;8.222;2023-04-25T01:16:15;4.03;;;3.70;;
1777;SDS011;886;50.082;8.222;2023-04-25T01:18:44;4.07;;;3.77;;
1777;SDS011;886;50.082;8.222;2023-04-25T01:21:16;5.10;;;4.60;;
1777;SDS011;886;50.082;8.222;2023-04-25T01:23:44;4.20;;;3.90;;
1777;SDS011;886;50.082;8.222;2023-04-25T01:26:12;4.53;;;3.90;;
1777;SDS011;886;50.082;8.222;2023-04-25T01:28:40;5.10;;;4.70;;
1777;SDS011;886;50.082;8.222;2023-04-25T01:31:08;5.57;;;5.07;;
1777;SDS011;886;50.082;8.222;2023-04-25T01:33:36;6.30;;;5.70;;
1777;SDS011;886;50.082;8.222;2023-04-25T01:36:04;6.17;;;5.03;;
1777;SDS011;886;50.082;8.222;2023-04-25T01:38:33;5.50;;;5.00;;
1777;SDS011;886;50.082;8.222;2023-04-25T01:41:02;5.93;;;5.43;;
1777;SDS011;886;50.082;8.222;2023-04-25T01:43:29;7.90;;;7.10;;
1777;SDS011;886;50.082;8.222;2023-04-25T01:45:57;6.37;;;5.50;;
1777;SDS011;886;50.082;8.222;2023-04-25T01:48:24;7.73;;;6.93;;
1777;SDS011;886;50.082;8.222;2023-04-25T01:50:51;6.27;;;5.70;;
1777;SDS011;886;50.082;8.222;2023-04-25T01:53:19;7.13;;;6.20;;
1777;SDS011;886;50.082;8.222;2023-04-25T01:55:57;9.13;;;7.77;;
1777;SDS011;886;50.082;8.222;2023-04-25T01:58:28;5.87;;;5.30;;
1777;SDS011;886;50.082;8.222;2023-04-25T02:00:55;10.90;;;6.10;;
1777;SDS011;886;50.082;8.222;2023-04-25T02:03:22;7.30;;;5.70;;
1777;SDS011;886;50.082;8.222;2023-04-25T02:05:49;6.67;;;5.43;;
1777;SDS011;886;50.082;8.222;2023-04-25T02:08:17;7.67;;;5.87;;
1777;SDS011;886;50.082;8.222;2023-04-25T02:10:47;10.33;;;5.40;;
1777;SDS011;886;50.082;8.222;2023-04-25T02:13:19;6.30;;;5.10;;
1777;SDS011;886;50.082;8.222;2023-04-25T02:15:56;5.73;;;5.07;;
1777;SDS011;886;50.082;8.222;2023-04-25T02:18:23;7.23;;;6.63;;
1777;SDS011;886;50.082;8.222;2023-04-25T02:20:52;5.63;;;5.10;;
1777;SDS011;886;50.082;8.222;2023-04-25T02:23:22;7.50;;;6.07;;
1777;SDS011;886;50.082;8.222;2023-04-25T02:25:50;5.80;;;5.00;;
1777;SDS011;886;50.082;8.222;2023-04-25T02:28:25;5.90;;;5.40;;
1777;SDS011;886;50.082;8.222;2023-04-25T02:30:53;6.43;;;5.93;;
1777;SDS011;886;50.082;8.222;2023-04-25T02:33:23;6.07;;;4.93;;
1777;SDS011;886;50.082;8.222;2023-04-25T02:35:51;6.33;;;5.73;;
1777;SDS011;886;50.082;8.222;2023-04-25T02:38:18;6.70;;;5.53;;
1777;SDS011;886;50.082;8.222;2023-04-25T02:40:48;7.10;;;6.10;;
1777;SDS011;886;50.082;8.222;2023-04-25T02:43:18;7.27;;;5.93;;
1777;SDS011;886;50.082;8.222;2023-04-25T02:45:47;6.83;;;5.00;;
1777;SDS011;886;50.082;8.222;2023-04-25T02:48:17;6.07;;;5.47;;
1777;SDS011;886;50.082;8.222;2023-04-25T02:50:44;6.17;;;5.57;;
1777;SDS011;886;50.082;8.222;2023-04-25T02:53:12;6.27;;;5.67;;
1777;SDS011;886;50.082;8.222;2023-04-25T02:55:40;5.90;;;5.40;;
1777;SDS011;886;50.082;8.222;2023-04-25T02:58:07;6.67;;;6.07;;
1777;SDS011;886;50.082;8.222;2023-04-25T03:00:34;6.40;;;5.90;;
1777;SDS011;886;50.082;8.222;2023-04-25T03:03:03;6.67;;;5.97;;
1777;SDS011;886;50.082;8.222;2023-04-25T03:05:30;7.33;;;6.10;;
1777;SDS011;886;50.082;8.222;2023-04-25T03:07:58;7.10;;;6.07;;
1777;SDS011;886;50.082;8.222;2023-04-25T03:10:25;9.83;;;6.97;;
1777;SDS011;886;50.082;8.222;2023-04-25T03:13:10;9.50;;;7.20;;
1777;SDS011;886;50.082;8.222;2023-04-25T03:15:43;10.17;;;6.80;;
1777;SDS011;886;50.082;8.222;2023-04-25T03:18:11;11.23;;;8.27;;
1777;SDS011;886;50.082;8.222;2023-04-25T03:20:38;11.93;;;8.43;;
1777;SDS011;886;50.082;8.222;2023-04-25T03:23:31;10.87;;;7.57;;
1777;SDS011;886;50.082;8.222;2023-04-25T03:26:02;9.40;;;8.47;;
1777;SDS011;886;50.082;8.222;2023-04-25T03:28:29;10.90;;;8.10;;
1777;SDS011;886;50.082;8.222;2023-04-25T03:30:57;7.90;;;7.20;;
1777;SDS011;886;50.082;8.222;2023-04-25T03:33:31;12.30;;;7.80;;
1777;SDS011;886;50.082;8.222;2023-04-25T03:35:59;13.70;;;8.30;;
1777;SDS011;886;50.082;8.222;2023-04-25T03:38:26;9.20;;;7.83;;
1777;SDS011;886;50.082;8.222;2023-04-25T03:40:57;10.67;;;8.27;;
1777;SDS011;886;50.082;8.222;2023-04-25T03:43:24;9.30;;;6.93;;
1777;SDS011;886;50.082;8.222;2023-04-25T03:45:52;9.37;;;7.63;;
1777;SDS011;886;50.082;8.222;2023-04-25T03:48:22;9.20;;;7.03;;
1777;SDS011;886;50.082;8.222;2023-04-25T03:50:52;10.77;;;7.10;;
1777;SDS011;886;50.082;8.222;2023-04-25T03:53:20;10.20;;;7.93;;
1777;SDS011;886;50.082;8.222;2023-04-25T03:55:47;11.13;;;7.97;;
1777;SDS011;886;50.082;8.222;2023-04-25T03:58:14;12.00;;;7.60;;
1777;SDS011;886;50.082;8.222;2023-04-25T04:00:42;10.20;;;6.00;;
1777;SDS011;886;50.082;8.222;2023-04-25T04:03:09;7.60;;;5.93;;
1777;SDS011;886;50.082;8.222;2023-04-25T04:05:37;9.57;;;6.33;;
1777;SDS011;886;50.082;8.222;2023-04-25T04:08:08;7.10;;;5.23;;
1777;SDS011;886;50.082;8.222;2023-04-25T04:10:38;7.60;;;5.80;;
1777;SDS011;886;50.082;8.222;2023-04-25T04:13:05;8.53;;;6.00;;
1777;SDS011;886;50.082;8.222;2023-04-25T04:15:38;12.80;;;5.75;;
1777;SDS011;886;50.082;8.222;2023-04-25T04:18:12;7.80;;;5.73;;
1777;SDS011;886;50.082;8.222;2023-04-25T04:20:57;8.43;;;4.83;;
1777;SDS011;886;50.082;8.222;2023-04-25T04:23:28;10.13;;;5.43;;
1777;SDS011;886;50.082;8.222;2023-04-25T04:25:55;9.17;;;5.50;;
1777;SDS011;886;50.082;8.222;2023-04-25T04:28:22;7.37;;;5.63;;
1777;SDS011;886;50.082;8.222;2023-04-25T04:30:50;9.70;;;6.03;;
1777;SDS011;886;50.082;8.222;2023-04-25T04:33:18;13.13;;;6.60;;
1777;SDS011;886;50.082;8.222;2023-04-25T04:35:45;9.60;;;5.80;;
1777;SDS011;886;50.082;8.222;2023-04-25T04:38:13;8.53;;;4.50;;
1777;SDS011;886;50.082;8.222;2023-04-25T04:40:43;8.77;;;4.87;;
1777;SDS011;886;50.082;8.222;2023-04-25T04:43:10;9.70;;;4.90;;
1777;SDS011;886;50.082;8.222;2023-04-25T04:45:38;13.53;;;5.93;;
1777;SDS011;886;50.082;8.222;2023-04-25T04:48:06;11.77;;;6.10;;
1777;SDS011;886;50.082;8.222;2023-04-25T04:50:33;10.20;;;5.37;;
1777;SDS011;886;50.082;8.222;2023-04-25T04:53:01;7.72;;;5.32;;
1777;SDS011;886;50.082;8.222;2023-04-25T04:55:30;8.17;;;5.80;;
1777;SDS011;886;50.082;8.222;2023-04-25T04:58:00;8.07;;;5.20;;
1777;SDS011;886;50.082;8.222;2023-04-25T05:00:27;11.33;;;5.57;;
1777;SDS011;886;50.082;8.222;2023-04-25T05:02:55;8.53;;;5.07;;
1777;SDS011;886;50.082;8.222;2023-04-25T05:05:23;11.77;;;5.90;;
1777;SDS011;886;50.082;8.222;2023-04-25T05:07:50;11.25;;;5.45;;
1777;SDS011;886;50.082;8.222;2023-04-25T05:10:20;8.33;;;5.87;;
1777;SDS011;886;50.082;8.222;2023-04-25T05:12:47;9.37;;;4.87;;
1777;SDS011;886;50.082;8.222;2023-04-25T05:15:16;10.03;;;5.07;;
1777;SDS011;886;50.082;8.222;2023-04-25T05:17:43;15.30;;;4.77;;
1777;SDS011;886;50.082;8.222;2023-04-25T05:20:11;7.90;;;5.13;;
1777;SDS011;886;50.082;8.222;2023-04-25T05:22:40;6.17;;;4.60;;
1777;SDS011;886;50.082;8.222;2023-04-25T05:25:08;7.20;;;4.37;;
1777;SDS011;886;50.082;8.222;2023-04-25T05:27:36;14.50;;;4.90;;
1777;SDS011;886;50.082;8.222;2023-04-25T05:30:11;8.00;;;5.10;;
1777;SDS011;886;50.082;8.222;2023-04-25T05:32:40;8.80;;;4.57;;
1777;SDS011;886;50.082;8.222;2023-04-25T05:35:07;8.13;;;4.93;;
1777;SDS011;886;50.082;8.222;2023-04-25T05:37:38;10.70;;;5.10;;
1777;SDS011;886;50.082;8.222;2023-04-25T05:40:06;7.60;;;5.23;;
1777;SDS011;886;50.082;8.222;2023-04-25T05:42:41;7.03;;;4.87;;
1777;SDS011;886;50.082;8.222;2023-04-25T05:45:08;14.53;;;5.17;;
1777;SDS011;886;50.082;8.222;2023-04-25T05:47:35;8.77;;;4.50;;
1777;SDS011;886;50.082;8.222;2023-04-25T05:50:07;15.43;;;6.00;;
1777;SDS011;886;50.082;8.222;2023-04-25T05:52:35;12.40;;;5.40;;
1777;SDS011;886;50.082;8.222;2023-04-25T05:55:05;8.30;;;4.50;;
1777;SDS011;886;50.082;8.222;2023-04-25T05:57:33;7.13;;;4.17;;
1777;SDS011;886;50.082;8.222;2023-04-25T06:00:01;10.23;;;4.73;;
1777;SDS011;886;50.082;8.222;2023-04-25T06:02:30;8.07;;;4.83;;
1777;SDS011;886;50.082;8.222;2023-04-25T06:04:59;9.03;;;4.97;;
1777;SDS011;886;50.082;8.222;2023-04-25T06:07:27;6.87;;;4.20;;
1777;SDS011;886;50.082;8.222;2023-04-25T06:10:00;10.70;;;3.93;;
1777;SDS011;886;50.082;8.222;2023-04-25T06:12:27;4.57;;;4.10;;
1777;SDS011;886;50.082;8.222;2023-04-25T06:14:55;9.63;;;4.00;;
1777;SDS011;886;50.082;8.222;2023-04-25T06:17:22;11.63;;;4.50;;
1777;SDS011;886;50.082;8.222;2023-04-25T06:19:52;5.37;;;4.73;;
1777;SDS011;886;50.082;8.222;2023-04-25T06:22:20;9.63;;;5.10;;
1777;SDS011;886;50.082;8.222;2023-04-25T06:24:50;9.03;;;4.27;;
1777;SDS011;886;50.082;8.222;2023-04-25T06:27:17;9.93;;;5.40;;
1777;SDS011;886;50.082;8.222;2023-04-25T06:29:44;10.60;;;4.80;;
1777;SDS011;886;50.082;8.222;2023-04-25T06:32:17;13.47;;;5.20;;
1777;SDS011;886;50.082;8.222;2023-04-25T06:34:44;5.60;;;4.97;;
1777;SDS011;886;50.082;8.222;2023-04-25T06:37:20;9.63;;;5.57;;
1777;SDS011;886;50.082;8.222;2023-04-25T06:39:47;9.90;;;4.80;;
1777;SDS011;886;50.082;8.222;2023-04-25T06:42:15;6.30;;;4.97;;
1777;SDS011;886;50.082;8.222;2023-04-25T06:44:42;7.00;;;4.70;;
1777;SDS011;886;50.082;8.222;2023-04-25T06:47:09;4.30;;;3.90;;
1777;SDS011;886;50.082;8.222;2023-04-25T06:49:37;7.20;;;4.47;;
1777;SDS011;886;50.082;8.222;2023-04-25T06:52:04;7.63;;;4.33;;
1777;SDS011;886;50.082;8.222;2023-04-25T06:54:36;9.80;;;4.20;;
1777;SDS011;886;50.082;8.222;2023-04-25T06:57:03;7.07;;;4.33;;
1777;SDS011;886;50.082;8.222;2023-04-25T06:59:31;9.90;;;4.90;;
1777;SDS011;886;50.082;8.222;2023-04-25T07:01:59;11.23;;;5.57;;
1777;SDS011;886;50.082;8.222;2023-04-25T07:04:30;8.60;;;6.17;;
1777;SDS011;886;50.082;8.222;2023-04-25T07:06:57;6.47;;;5.20;;
1777;SDS011;886;50.082;8.222;2023-04-25T07:09:27;6.60;;;3.67;;
1777;SDS011;886;50.082;8.222;2023-04-25T07:11:56;6.10;;;4.33;;
1777;SDS011;886;50.082;8.222;2023-04-25T07:14:26;3.80;;;3.30;;
1777;SDS011;886;50.082;8.222;2023-04-25T07:16:56;6.40;;;3.47;;
1777;SDS011;886;50.082;8.222;2023-04-25T07:19:23;6.50;;;3.33;;
1777;SDS011;886;50.082;8.222;2023-04-25T07:21:53;5.43;;;3.10;;
1777;SDS011;886;50.082;8.222;2023-04-25T07:24:20;4.27;;;3.03;;
1777;SDS011;886;50.082;8.222;2023-04-25T07:26:47;4.60;;;3.30;;
1777;SDS011;886;50.082;8.222;2023-04-25T07:29:15;8.13;;;3.10;;
1777;SDS011;886;50.082;8.222;2023-04-25T07:31:43;8.73;;;3.17;;
1777;SDS011;886;50.082;8.222;2023-04-25T07:34:27;2.67;;;2.43;;
1777;SDS011;886;50.082;8.222;2023-04-25T07:36:56;2.87;;;2.67;;
1777;SDS011;886;50.082;8.222;2023-04-25T07:39:23;4.00;;;3.17;;
1777;SDS011;886;50.082;8.222;2023-04-25T07:41:50;4.80;;;3.00;;
1777;SDS011;886;50.082;8.222;2023-04-25T07:44:21;4.57;;;2.67;;
1777;SDS011;886;50.082;8.222;2023-04-25T07:46:49;2.60;;;2.10;;
1777;SDS011;886;50.082;8.222;2023-04-25T07:49:16;2.60;;;2.10;;
1777;SDS011;886;50.082;8.222;2023-04-25T07:51:47;2.70;;;2.43;;
1777;SDS011;886;50.082;8.222;2023-04-25T07:54:14;3.77;;;2.63;;
1777;SDS011;886;50.082;8.222;2023-04-25T07:56:48;5.17;;;2.90;;
1777;SDS011;886;50.082;8.222;2023-04-25T07:59:23;2.53;;;1.90;;
1777;SDS011;886;50.082;8.222;2023-04-25T08:01:52;3.00;;;2.20;;
1777;SDS011;886;50.082;8.222;2023-04-25T08:04:22;3.23;;;2.90;;
1777;SDS011;886;50.082;8.222;2023-04-25T08:06:55;5.57;;;2.50;;
1777;SDS011;886;50.082;8.222;2023-04-25T08:09:25;2.40;;;2.20;;
1777;SDS011;886;50.082;8.222;2023-04-25T08:11:53;3.10;;;2.30;;
1777;SDS011;886;50.082;8.222;2023-04-25T08:14:20;4.37;;;2.90;;
1777;SDS011;886;50.082;8.222;2023-04-25T08:16:49;4.70;;;2.60;;
1777;SDS011;886;50.082;8.222;2023-04-25T08:19:18;2.70;;;2.30;;
1777;SDS011;886;50.082;8.222;2023-04-25T08:21:54;4.03;;;2.10;;
1777;SDS011;886;50.082;8.222;2023-04-25T08:24:23;2.30;;;2.10;;
1777;SDS011;886;50.082;8.222;2023-04-25T08:26:50;4.57;;;2.30;;
1777;SDS011;886;50.082;8.222;2023-04-25T08:29:18;2.90;;;2.70;;
1777;SDS011;886;50.082;8.222;2023-04-25T08:31:46;3.60;;;2.80;;
1777;SDS011;886;50.082;8.222;2023-04-25T08:34:14;3.63;;;2.50;;
1777;SDS011;886;50.082;8.222;2023-04-25T08:36:44;4.53;;;3.00;;
1777;SDS011;886;50.082;8.222;2023-04-25T08:39:12;2.97;;;2.67;;
1777;SDS011;886;50.082;8.222;2023-04-25T08:41:40;4.57;;;3.33;;
1777;SDS011;886;50.082;8.222;2023-04-25T08:44:08;3.77;;;3.23;;
1777;SDS011;886;50.082;8.222;2023-04-25T08:46:38;3.47;;;3.27;;
1777;SDS011;886;50.082;8.222;2023-04-25T08:49:11;6.47;;;3.40;;
1777;SDS011;886;50.082;8.222;2023-04-25T08:51:41;5.13;;;3.47;;
1777;SDS011;886;50.082;8.222;2023-04-25T08:54:13;3.80;;;3.20;;
1777;SDS011;886;50.082;8.222;2023-04-25T08:57:01;6.70;;;3.47;;
1777;SDS011;886;50.082;8.222;2023-04-25T08:59:31;8.50;;;3.47;;
1777;SDS011;886;50.082;8.222;2023-04-25T09:02:02;3.63;;;3.20;;
1777;SDS011;886;50.082;8.222;2023-04-25T09:04:31;7.60;;;3.30;;
1777;SDS011;886;50.082;8.222;2023-04-25T09:07:01;4.93;;;3.20;;
1777;SDS011;886;50.082;8.222;2023-04-25T09:09:29;4.30;;;3.80;;
1777;SDS011;886;50.082;8.222;2023-04-25T09:11:56;6.73;;;3.37;;
1777;SDS011;886;50.082;8.222;2023-04-25T09:14:23;5.00;;;3.67;;
1777;SDS011;886;50.082;8.222;2023-04-25T09:16:58;4.20;;;3.63;;
1777;SDS011;886;50.082;8.222;2023-04-25T09:19:35;4.90;;;3.53;;
1777;SDS011;886;50.082;8.222;2023-04-25T09:22:07;5.03;;;3.80;;
1777;SDS011;886;50.082;8.222;2023-04-25T09:24:35;4.33;;;4.00;;
1777;SDS011;886;50.082;8.222;2023-04-25T09:27:04;15.83;;;8.97;;
1777;SDS011;886;50.082;8.222;2023-04-25T09:29:33;7.13;;;4.40;;
1777;SDS011;886;50.082;8.222;2023-04-25T09:32:15;6.43;;;4.20;;
1777;SDS011;886;50.082;8.222;2023-04-25T09:34:50;4.00;;;3.67;;
1777;SDS011;886;50.082;8.222;2023-04-25T09:37:22;5.87;;;3.90;;
1777;SDS011;886;50.082;8.222;2023-04-25T09:39:52;11.47;;;5.10;;
1777;SDS011;886;50.082;8.222;2023-04-25T09:42:41;5.30;;;4.10;;
1777;SDS011;886;50.082;8.222;2023-04-25T09:45:08;4.83;;;4.23;;
1777;SDS011;886;50.082;8.222;2023-04-25T09:47:42;8.53;;;5.67;;
1777;SDS011;886;50.082;8.222;2023-04-25T09:50:17;6.73;;;5.67;;
1777;SDS011;886;50.082;8.222;2023-04-25T09:52:46;5.03;;;4.63;;
1777;SDS011;886;50.082;8.222;2023-04-25T09:55:36;9.07;;;4.97;;
1777;SDS011;886;50.082;8.222;2023-04-25T09:58:09;8.30;;;5.70;;
1777;SDS011;886;50.082;8.222;2023-04-25T10:00:38;7.00;;;5.83;;
1777;SDS011;886;50.082;8.222;2023-04-25T10:03:07;7.43;;;6.03;;
1777;SDS011;886;50.082;8.222;2023-04-25T10:05:48;7.90;;;4.87;;
1777;SDS011;886;50.082;8.222;2023-04-25T10:08:15;7.00;;;5.63;;
1777;SDS011;886;50.082;8.222;2023-04-25T10:10:46;8.40;;;5.30;;
1777;SDS011;886;50.082;8.222;2023-04-25T10:13:20;6.60;;;4.97;;
1777;SDS011;886;50.082;8.222;2023-04-25T10:15:47;6.20;;;4.50;;
1777;SDS011;886;50.082;8.222;2023-04-25T10:18:19;7.00;;;4.50;;
1777;SDS011;886;50.082;8.222;2023-04-25T10:20:55;7.63;;;5.13;;
1777;SDS011;886;50.082;8.222;2023-04-25T10:23:26;10.93;;;7.03;;
1777;SDS011;886;50.082;8.222;2023-04-25T10:25:55;7.63;;;4.30;;
1777;SDS011;886;50.082;8.222;2023-04-25T10:28:24;5.10;;;4.00;;
1777;SDS011;886;50.082;8.222;2023-04-25T10:30:57;7.73;;;4.27;;
1777;SDS011;886;50.082;8.222;2023-04-25T10:36:18;5.20;;;4.23;;
1777;SDS011;886;50.082;8.222;2023-04-25T10:38:58;4.90;;;3.80;;
1777;SDS011;886;50.082;8.222;2023-04-25T10:41:41;4.33;;;3.90;;
1777;SDS011;886;50.082;8.222;2023-04-25T10:44:22;5.60;;;3.57;;
1777;SDS011;886;50.082;8.222;2023-04-25T10:46:55;5.03;;;3.97;;
1777;SDS011;886;50.082;8.222;2023-04-25T10:49:30;7.70;;;4.03;;
1777;SDS011;886;50.082;8.222;2023-04-25T10:52:14;4.10;;;3.70;;
1777;SDS011;886;50.082;8.222;2023-04-25T10:54:47;4.00;;;3.07;;
1777;SDS011;886;50.082;8.222;2023-04-25T10:57:33;6.43;;;4.53;;
1777;SDS011;886;50.082;8.222;2023-04-25T11:00:12;8.10;;;3.93;;
1777;SDS011;886;50.082;8.222;2023-04-25T11:02:42;6.47;;;3.70;;
1777;SDS011;886;50.082;8.222;2023-04-25T11:05:20;10.23;;;3.73;;
1777;SDS011;886;50.082;8.222;2023-04-25T11:08:15;3.73;;;3.43;;
1777;SDS011;886;50.082;8.222;2023-04-25T11:11:03;6.87;;;3.60;;
1777;SDS011;886;50.082;8.222;2023-04-25T11:13:31;6.90;;;3.73;;
1777;SDS011;886;50.082;8.222;2023-04-25T11:15:58;6.53;;;4.17;;
1777;SDS011;886;50.082;8.222;2023-04-25T11:18:42;4.40;;;3.40;;
1777;SDS011;886;50.082;8.222;2023-04-25T11:21:11;6.30;;;3.40;;
1777;SDS011;886;50.082;8.222;2023-04-25T11:23:44;6.50;;;3.63;;
1777;SDS011;886;50.082;8.222;2023-04-25T11:26:14;6.80;;;3.60;;
1777;SDS011;886;50.082;8.222;2023-04-25T11:28:44;8.83;;;3.93;;
1777;SDS011;886;50.082;8.222;2023-04-25T11:31:14;6.83;;;3.60;;
1777;SDS011;886;50.082;8.222;2023-04-25T11:33:41;5.33;;;3.90;;
1777;SDS011;886;50.082;8.222;2023-04-25T11:36:11;9.77;;;3.90;;
1777;SDS011;886;50.082;8.222;2023-04-25T11:38:40;4.77;;;3.87;;
1777;SDS011;886;50.082;8.222;2023-04-25T11:41:11;5.70;;;3.97;;
1777;SDS011;886;50.082;8.222;2023-04-25T11:43:39;5.33;;;3.60;;
1777;SDS011;886;50.082;8.222;2023-04-25T11:46:08;7.47;;;4.70;;
1777;SDS011;886;50.082;8.222;2023-04-25T11:48:37;5.93;;;3.70;;
1777;SDS011;886;50.082;8.222;2023-04-25T11:51:05;5.23;;;3.87;;
1777;SDS011;886;50.082;8.222;2023-04-25T11:53:33;7.60;;;3.30;;
1777;SDS011;886;50.082;8.222;2023-04-25T11:56:10;7.13;;;3.60;;
1777;SDS011;886;50.082;8.222;2023-04-25T11:58:54;7.40;;;4.20;;
1777;SDS011;886;50.082;8.222;2023-04-25T12:01:26;5.40;;;3.60;;
1777;SDS011;886;50.082;8.222;2023-04-25T12:03:58;5.87;;;3.70;;
1777;SDS011;886;50.082;8.222;2023-04-25T12:06:37;9.80;;;4.20;;
1777;SDS011;886;50.082;8.222;2023-04-25T12:09:08;6.87;;;3.37;;
1777;SDS011;886;50.082;8.222;2023-04-25T12:11:56;5.30;;;3.83;;
1777;SDS011;886;50.082;8.222;2023-04-25T12:14:26;4.80;;;4.07;;
1777;SDS011;886;50.082;8.222;2023-04-25T12:16:55;4.23;;;3.60;;
1777;SDS011;886;50.082;8.222;2023-04-25T12:19:24;5.20;;;4.00;;
1777;SDS011;886;50.082;8.222;2023-04-25T12:21:59;6.03;;;3.27;;
1777;SDS011;886;50.082;8.222;2023-04-25T12:24:27;4.10;;;3.70;;
1777;SDS011;886;50.082;8.222;2023-04-25T12:27:02;10.87;;;3.37;;
1777;SDS011;886;50.082;8.222;2023-04-25T12:29:35;4.40;;;3.83;;
1777;SDS011;886;50.082;8.222;2023-04-25T12:32:15;3.70;;;2.97;;
1777;SDS011;886;50.082;8.222;2023-04-25T12:34:43;8.57;;;3.17;;
1777;SDS011;886;50.082;8.222;2023-04-25T12:37:11;3.00;;;2.80;;
1777;SDS011;886;50.082;8.222;2023-04-25T12:39:39;6.07;;;4.03;;
1777;SDS011;886;50.082;8.222;2023-04-25T12:42:08;4.73;;;2.97;;
1777;SDS011;886;50.082;8.222;2023-04-25T12:44:41;7.57;;;3.30;;
1777;SDS011;886;50.082;8.222;2023-04-25T12:47:08;6.60;;;3.60;;
1777;SDS011;886;50.082;8.222;2023-04-25T12:49:36;4.50;;;3.20;;
1777;SDS011;886;50.082;8.222;2023-04-25T12:52:04;4.90;;;3.00;;
1777;SDS011;886;50.082;8.222;2023-04-25T12:54:31;4.10;;;3.70;;
1777;SDS011;886;50.082;8.222;2023-04-25T12:57:02;6.60;;;3.70;;
1777;SDS011;886;50.082;8.222;2023-04-25T12:59:33;3.70;;;3.40;;
1777;SDS011;886;50.082;8.222;2023-04-25T13:02:00;5.00;;;3.70;;
1777;SDS011;886;50.082;8.222;2023-04-25T13:04:28;3.83;;;3.37;;
1777;SDS011;886;50.082;8.222;2023-04-25T13:06:55;4.67;;;2.97;;
1777;SDS011;886;50.082;8.222;2023-04-25T13:09:28;5.57;;;3.10;;
1777;SDS011;886;50.082;8.222;2023-04-25T13:11:56;5.43;;;4.00;;
1777;SDS011;886;50.082;8.222;2023-04-25T13:14:24;4.87;;;3.00;;
1777;SDS011;886;50.082;8.222;2023-04-25T13:16:55;6.73;;;3.17;;
1777;SDS011;886;50.082;8.222;2023-04-25T13:19:23;4.97;;;3.00;;
1777;SDS011;886;50.082;8.222;2023-04-25T13:21:53;12.17;;;3.80;;
1777;SDS011;886;50.082;8.222;2023-04-25T13:24:21;4.23;;;3.00;;
1777;SDS011;886;50.082;8.222;2023-04-25T13:26:48;6.23;;;2.67;;
1777;SDS011;886;50.082;8.222;2023-04-25T13:29:15;3.70;;;3.10;;
1777;SDS011;886;50.082;8.222;2023-04-25T13:31:43;6.40;;;3.90;;
1777;SDS011;886;50.082;8.222;2023-04-25T13:34:12;12.57;;;3.83;;
1777;SDS011;886;50.082;8.222;2023-04-25T13:36:40;14.43;;;3.90;;
1777;SDS011;886;50.082;8.222;2023-04-25T13:39:07;4.87;;;3.87;;
1777;SDS011;886;50.082;8.222;2023-04-25T13:41:34;8.53;;;3.90;;
1777;SDS011;886;50.082;8.222;2023-04-25T13:44:02;7.10;;;3.73;;
1777;SDS011;886;50.082;8.222;2023-04-25T13:46:30;6.93;;;3.30;;
1777;SDS011;886;50.082;8.222;2023-04-25T13:49:13;15.37;;;5.47;;
1777;SDS011;886;50.082;8.222;2023-04-25T13:51:41;9.40;;;3.90;;
1777;SDS011;886;50.082;8.222;2023-04-25T13:54:09;5.00;;;3.40;;
1777;SDS011;886;50.082;8.222;2023-04-25T13:56:37;5.47;;;3.20;;
1777;SDS011;886;50.082;8.222;2023-04-25T13:59:05;4.20;;;2.93;;
1777;SDS011;886;50.082;8.222;2023-04-25T14:01:32;5.57;;;3.87;;
1777;SDS011;886;50.082;8.222;2023-04-25T14:04:02;5.93;;;3.47;;
1777;SDS011;886;50.082;8.222;2023-04-25T14:06:34;5.83;;;3.23;;
1777;SDS011;886;50.082;8.222;2023-04-25T14:09:02;5.27;;;2.73;;
1777;SDS011;886;50.082;8.222;2023-04-25T14:11:30;10.57;;;3.20;;
1777;SDS011;886;50.082;8.222;2023-04-25T14:13:58;5.73;;;2.87;;
1777;SDS011;886;50.082;8.222;2023-04-25T14:16:25;5.70;;;2.93;;
1777;SDS011;886;50.082;8.222;2023-04-25T14:18:52;5.20;;;3.23;;
1777;SDS011;886;50.082;8.222;2023-04-25T14:21:21;3.60;;;3.03;;
1777;SDS011;886;50.082;8.222;2023-04-25T14:23:49;5.43;;;2.90;;
1777;SDS011;886;50.082;8.222;2023-04-25T14:26:17;3.17;;;2.87;;
1777;SDS011;886;50.082;8.222;2023-04-25T14:28:44;3.30;;;3.10;;
1777;SDS011;886;50.082;8.222;2023-04-25T14:31:11;3.43;;;3.13;;
1777;SDS011;886;50.082;8.222;2023-04-25T14:33:38;12.70;;;3.97;;
1777;SDS011;886;50.082;8.222;2023-04-25T14:36:09;4.67;;;3.00;;
1777;SDS011;886;50.082;8.222;2023-04-25T14:38:36;3.73;;;3.20;;
1777;SDS011;886;50.082;8.222;2023-04-25T14:41:05;5.80;;;2.63;;
1777;SDS011;886;50.082;8.222;2023-04-25T14:43:32;3.43;;;2.73;;
1777;SDS011;886;50.082;8.222;2023-04-25T14:46:00;4.80;;;2.80;;
1777;SDS011;886;50.082;8.222;2023-04-25T14:48:28;4.83;;;2.70;;
1777;SDS011;886;50.082;8.222;2023-04-25T14:50:56;5.17;;;3.50;;
1777;SDS011;886;50.082;8.222;2023-04-25T14:53:27;4.63;;;2.70;;
1777;SDS011;886;50.082;8.222;2023-04-25T14:56:13;7.33;;;2.97;;
1777;SDS011;886;50.082;8.222;2023-04-25T14:58:41;3.33;;;3.03;;
1777;SDS011;886;50.082;8.222;2023-04-25T15:01:08;5.97;;;2.67;;
1777;SDS011;886;50.082;8.222;2023-04-25T15:03:36;5.43;;;3.00;;
1777;SDS011;886;50.082;8.222;2023-04-25T15:06:03;10.17;;;2.90;;
1777;SDS011;886;50.082;8.222;2023-04-25T15:08:32;7.43;;;3.77;;
1777;SDS011;886;50.082;8.222;2023-04-25T15:11:00;4.23;;;2.83;;
1777;SDS011;886;50.082;8.222;2023-04-25T15:13:30;6.37;;;2.70;;
1777;SDS011;886;50.082;8.222;2023-04-25T15:15:58;3.80;;;2.77;;
1777;SDS011;886;50.082;8.222;2023-04-25T15:18:30;5.07;;;2.60;;
1777;SDS011;886;50.082;8.222;2023-04-25T15:21:00;3.33;;;2.50;;
1777;SDS011;886;50.082;8.222;2023-04-25T15:23:27;4.50;;;2.77;;
1777;SDS011;886;50.082;8.222;2023-04-25T15:26:01;5.03;;;2.20;;
1777;SDS011;886;50.082;8.222;2023-04-25T15:28:29;7.03;;;2.10;;
1777;SDS011;886;50.082;8.222;2023-04-25T15:30:58;2.73;;;2.27;;
1777;SDS011;886;50.082;8.222;2023-04-25T15:33:25;4.43;;;2.57;;
1777;SDS011;886;50.082;8.222;2023-04-25T15:35:52;3.50;;;2.20;;
1777;SDS011;886;50.082;8.222;2023-04-25T15:38:20;3.80;;;2.70;;
1777;SDS011;886;50.082;8.222;2023-04-25T15:40:48;5.17;;;2.70;;
1777;SDS011;886;50.082;8.222;2023-04-25T15:43:15;3.70;;;2.40;;
1777;SDS011;886;50.082;8.222;2023-04-25T15:45:44;6.50;;;2.80;;
1777;SDS011;886;50.082;8.222;2023-04-25T15:48:14;3.87;;;2.37;;